Time;durP1;ratioP1;P1;durP2;ratioP2;P2;SDS_P1;SDS_P2;PMS_P1;PMS_P2;Temp;Humidity;BMP_temperature;BMP_pressure;BME280_temperature;BME280_humidity;BME280_pressure;Samples;Min_cycle;Max_cycle;Signal;HPM_P1;HPM_P2
2023/08/11 00:00:08;;;;;;;0.40;0.40;;;24.50;71.40;;;;;;5052143;28;20056;-72
2023/08/11 00:02:37;;;;;;;0.30;0.30;;;24.50;71.30;;;;;;5034544;28;20033;-72
2023/08/11 00:05:05;;;;;;;0.38;0.35;;;24.50;67.90;;;;;;5034509;28;20171;-72
2023/08/11 00:07:31;;;;;;;0.32;0.32;;;24.50;68.70;;;;;;5034082;28;20549;-72
2023/08/11 00:09:58;;;;;;;0.63;0.40;;;;;;;;;;5034018;28;20420;-72
2023/08/11 00:12:25;;;;;;;0.38;0.38;;;;;;;;;;5050440;28;20056;-72
2023/08/11 00:14:52;;;;;;;0.45;0.45;;;;;;;;;;5051278;28;20045;-71
2023/08/11 00:17:19;;;;;;;0.40;0.40;;;;;;;;;;5052936;28;20499;-72
2023/08/11 00:19:46;;;;;;;0.40;0.40;;;;;;;;;;5054879;28;20043;-72
2023/08/11 00:22:12;;;;;;;0.40;0.40;;;;;;;;;;5054576;28;20051;-72
2023/08/11 00:24:39;;;;;;;0.40;0.40;;;;;;;;;;5054614;28;20117;-72
2023/08/11 00:27:06;;;;;;;0.38;0.38;;;;;;;;;;5054920;28;20456;-72
2023/08/11 00:29:33;;;;;;;0.60;0.30;;;;;;;;;;5054176;28;20049;-72
2023/08/11 00:32:00;;;;;;;0.30;0.30;;;;;;;;;;5054481;28;20052;-72
2023/08/11 00:34:26;;;;;;;0.30;0.30;;;;;;;;;;5054557;28;20049;-72
2023/08/11 00:36:55;;;;;;;0.30;0.30;;;;;;;;;;5054459;28;20174;-72
2023/08/11 00:39:21;;;;;;;0.40;0.40;;;;;;;;;;5054482;28;20064;-72
2023/08/11 00:41:48;;;;;;;0.40;0.40;;;;;;;;;;5054319;28;20116;-72
2023/08/11 00:44:14;;;;;;;0.55;0.32;;;;;;;;;;5054833;28;20124;-72
2023/08/11 00:46:42;;;;;;;0.77;0.45;;;24.30;70.40;;;;;;5054188;28;20487;-73
2023/08/11 00:49:09;;;;;;;0.43;0.43;;;;;;;;;;5053727;28;20048;-73
2023/08/11 00:51:36;;;;;;;1.80;0.35;;;;;;;;;;5053959;28;20037;-73
2023/08/11 00:54:02;;;;;;;0.75;0.40;;;;;;;;;;5055407;28;20377;-73
2023/08/11 00:56:29;;;;;;;0.50;0.32;;;;;;;;;;5055318;28;20037;-72
2023/08/11 00:58:55;;;;;;;0.30;0.30;;;;;;;;;;5055316;28;20040;-72
2023/08/11 01:01:22;;;;;;;0.50;0.40;;;;;;;;;;5055003;28;20094;-72
2023/08/11 01:03:48;;;;;;;0.45;0.38;;;;;;;;;;5055211;28;20033;-73
2023/08/11 01:06:39;;;;;;;0.40;0.40;;;24.20;65.70;;;;;;5055167;28;20033;-72
2023/08/11 01:09:31;;;;;;;0.68;0.50;;;24.20;65.60;;;;;;5055064;28;20048;-72
2023/08/11 01:12:29;;;;;;;0.30;0.30;;;24.20;65.80;;;;;;5055174;28;20134;-72
2023/08/11 01:15:16;;;;;;;0.55;0.50;;;24.20;66.00;;;;;;5054978;28;20029;-72
2023/08/11 01:17:46;;;;;;;0.50;0.50;;;24.20;71.50;;;;;;5054658;28;20060;-72
2023/08/11 01:20:15;;;;;;;0.38;0.38;;;;;;;;;;5054793;28;20044;-72
2023/08/11 01:22:46;;;;;;;0.40;0.40;;;24.20;71.20;;;;;;5054652;28;20479;-72
2023/08/11 01:25:12;;;;;;;1.02;0.40;;;;;;;;;;5054643;28;20445;-75
2023/08/11 01:27:47;;;;;;;0.45;0.45;;;24.00;64.80;;;;;;5054463;28;20033;-75
2023/08/11 01:30:14;;;;;;;0.60;0.55;;;;;;;;;;5054590;28;20047;-75
2023/08/11 01:32:41;;;;;;;0.40;0.40;;;;;;;;;;5054349;28;20094;-75
2023/08/11 01:35:09;;;;;;;0.68;0.45;;;;;;;;;;5054611;28;20079;-75
2023/08/11 01:37:36;;;;;;;0.60;0.60;;;;;;;;;;5054584;28;20041;-75
2023/08/11 01:40:04;;;;;;;0.32;0.30;;;;;;;;;;5054413;28;20413;-76
2023/08/11 01:42:31;;;;;;;0.40;0.40;;;;;;;;;;5054714;28;20482;-75
2023/08/11 01:44:57;;;;;;;0.60;0.45;;;;;;;;;;5054436;28;20040;-76
2023/08/11 01:47:24;;;;;;;0.38;0.32;;;;;;;;;;5054004;28;20502;-75
2023/08/11 01:49:51;;;;;;;0.52;0.45;;;;;;;;;;5053883;28;20045;-75
2023/08/11 01:52:18;;;;;;;1.33;0.85;;;;;;;;;;5054129;28;20033;-75
2023/08/11 01:54:44;;;;;;;0.40;0.40;;;;;;;;;;5054248;28;20033;-75
2023/08/11 01:57:11;;;;;;;0.40;0.40;;;24.00;68.10;;;;;;5054170;28;20045;-75
2023/08/11 01:59:37;;;;;;;0.43;0.40;;;;;;;;;;5054129;28;20025;-75
2023/08/11 02:02:04;;;;;;;0.50;0.43;;;;;;;;;;5053942;28;20047;-75
2023/08/11 02:04:30;;;;;;;0.30;0.30;;;;;;;;;;5053780;28;20080;-75
2023/08/11 02:06:57;;;;;;;0.40;0.40;;;;;;;;;;5053918;28;20403;-75
2023/08/11 02:09:23;;;;;;;0.40;0.40;;;;;;;;;;5054490;28;20124;-75
2023/08/11 02:11:50;;;;;;;0.75;0.63;;;;;;;;;;5053579;28;20049;-75
2023/08/11 02:14:16;;;;;;;0.40;0.40;;;;;;;;;;5053553;28;20037;-75
2023/08/11 02:16:43;;;;;;;0.32;0.32;;;;;;;;;;5053921;28;20048;-76
2023/08/11 02:19:09;;;;;;;0.63;0.47;;;;;;;;;;5053399;28;20087;-75
2023/08/11 02:21:38;;;;;;;0.60;0.40;;;;;;;;;;5053822;28;20426;-76
2023/08/11 02:24:04;;;;;;;0.45;0.40;;;;;;;;;;5053396;28;20041;-75
2023/08/11 02:26:32;;;;;;;0.45;0.40;;;;;;;;;;5053635;28;20048;-75
2023/08/11 02:28:59;;;;;;;0.35;0.30;;;;;;;;;;5053517;28;20045;-75
2023/08/11 02:31:26;;;;;;;0.65;0.50;;;;;;;;;;5053209;28;20107;-75
2023/08/11 02:33:52;;;;;;;0.32;0.30;;;;;;;;;;5053473;28;20116;-75
2023/08/11 02:36:20;;;;;;;0.60;0.50;;;;;;;;;;5053311;28;20434;-75
2023/08/11 02:38:46;;;;;;;0.40;0.40;;;;;;;;;;5052147;28;20116;-75
2023/08/11 02:41:13;;;;;;;0.80;0.68;;;;;;;;;;5052118;28;20056;-76
2023/08/11 02:43:39;;;;;;;0.60;0.50;;;;;;;;;;5051700;28;20083;-75
2023/08/11 02:46:06;;;;;;;0.40;0.40;;;;;;;;;;5051984;28;20349;-75
2023/08/11 02:48:36;;;;;;;0.60;0.40;;;;;;;;;;5051744;28;20128;-75
2023/08/11 02:51:05;;;;;;;;;;;23.90;65.40;;;;;;5052506;28;20041;-75
2023/08/11 02:53:32;;;;;;;0.50;0.50;;;;;;;;;;5051918;28;19909;-75
2023/08/11 02:56:01;;;;;;;0.52;0.40;;;;;;;;;;5051893;28;20033;-75
2023/08/11 02:58:28;;;;;;;0.75;0.40;;;;;;;;;;5051410;28;20045;-76
2023/08/11 03:00:54;;;;;;;0.68;0.50;;;;;;;;;;5052999;28;20388;-76
2023/08/11 03:03:21;;;;;;;0.40;0.32;;;;;;;;;;5051664;28;20033;-75
2023/08/11 03:05:48;;;;;;;0.45;0.30;;;;;;;;;;5052187;28;20041;-76
2023/08/11 03:08:15;;;;;;;0.43;0.43;;;;;;;;;;5052825;28;20468;-75
2023/08/11 03:10:41;;;;;;;0.50;0.40;;;;;;;;;;5051571;28;20037;-76
2023/08/11 03:13:08;;;;;;;0.30;0.30;;;;;;;;;;5051177;28;20553;-75
2023/08/11 03:15:34;;;;;;;0.45;0.45;;;;;;;;;;5051409;28;20045;-75
2023/08/11 03:18:01;;;;;;;0.68;0.40;;;;;;;;;;5051606;28;20037;-76
2023/08/11 03:20:27;;;;;;;0.93;0.60;;;;;;;;;;5051496;28;20041;-76
2023/08/11 03:22:54;;;;;;;0.50;0.50;;;;;;;;;;5051429;28;20072;-76
2023/08/11 03:25:20;;;;;;;0.47;0.40;;;;;;;;;;5051344;28;20033;-76
2023/08/11 03:27:47;;;;;;;0.55;0.50;;;;;;;;;;5050978;28;20565;-76
2023/08/11 03:30:13;;;;;;;0.40;0.40;;;;;;;;;;5051207;28;20045;-76
2023/08/11 03:32:40;;;;;;;0.32;0.32;;;;;;;;;;5051219;28;20415;-76
2023/08/11 03:35:07;;;;;;;0.45;0.40;;;;;;;;;;5051403;28;20040;-76
2023/08/11 03:37:34;;;;;;;0.57;0.50;;;;;;;;;;5050917;28;20522;-76
2023/08/11 03:40:02;;;;;;;0.45;0.43;;;;;;;;;;5051139;28;20065;-75
2023/08/11 03:42:28;;;;;;;0.43;0.40;;;;;;;;;;5051070;28;20049;-75
2023/08/11 03:44:55;;;;;;;0.52;0.52;;;;;;;;;;5051131;28;20438;-76
2023/08/11 03:47:21;;;;;;;0.60;0.35;;;;;;;;;;5051048;28;20041;-75
2023/08/11 03:49:48;;;;;;;0.45;0.43;;;;;;;;;;5052038;28;20125;-76
2023/08/11 03:52:15;;;;;;;0.57;0.43;;;;;;;;;;5050962;28;20423;-76
2023/08/11 03:54:41;;;;;;;0.40;0.40;;;;;;;;;;5050996;28;20041;-75
2023/08/11 03:57:08;;;;;;;0.57;0.50;;;;;;;;;;5051023;28;20040;-75
2023/08/11 03:59:36;;;;;;;0.57;0.55;;;;;;;;;;5050932;28;20408;-75
2023/08/11 04:02:02;;;;;;;0.47;0.47;;;;;;;;;;5050785;28;20033;-75
2023/08/11 04:04:29;;;;;;;0.55;0.30;;;;;;;;;;5051394;28;20387;-76
2023/08/11 04:06:55;;;;;;;0.40;0.40;;;;;;;;;;5050870;28;20072;-75
2023/08/11 04:09:22;;;;;;;0.60;0.50;;;;;;;;;;5051860;28;20060;-75
2023/08/11 04:11:48;;;;;;;0.57;0.50;;;;;;;;;;5050463;28;20049;-75
2023/08/11 04:14:15;;;;;;;0.43;0.40;;;;;;;;;;5050809;28;20037;-75
2023/08/11 04:16:41;;;;;;;0.60;0.60;;;;;;;;;;5050749;28;20041;-76
2023/08/11 04:19:08;;;;;;;0.63;0.50;;;;;;;;;;5050691;28;20399;-75
2023/08/11 04:21:36;;;;;;;0.50;0.50;;;;;;;;;;5050363;28;20060;-76
2023/08/11 04:24:02;;;;;;;0.60;0.60;;;;;;;;;;5050304;28;20045;-76
2023/08/11 04:26:29;;;;;;;0.60;0.50;;;;;;;;;;5050499;28;20041;-76
2023/08/11 04:28:55;;;;;;;0.40;0.40;;;;;;;;;;5050283;28;20048;-76
2023/08/11 04:31:22;;;;;;;1.85;0.40;;;;;;;;;;5050962;28;20043;-75
2023/08/11 04:33:48;;;;;;;0.80;0.40;;;;;;;;;;5050349;28;20475;-76
2023/08/11 04:36:15;;;;;;;0.45;0.40;;;;;;;;;;5050465;28;20041;-76
2023/08/11 04:38:41;;;;;;;0.40;0.40;;;;;;;;;;5051712;28;20492;-76
2023/08/11 04:41:08;;;;;;;0.57;0.52;;;;;;;;;;5050427;28;20052;-76
2023/08/11 04:43:34;;;;;;;0.40;0.40;;;;;;;;;;5051355;28;20048;-76
2023/08/11 04:46:01;;;;;;;0.50;0.50;;;;;;;;;;5050164;28;20049;-76
2023/08/11 04:48:28;;;;;;;0.40;0.38;;;;;;;;;;5050383;28;20427;-76
2023/08/11 04:50:54;;;;;;;0.50;0.40;;;;;;;;;;5050409;28;20372;-76
2023/08/11 04:53:21;;;;;;;0.60;0.60;;;;;;;;;;5050390;28;20041;-76
2023/08/11 04:55:48;;;;;;;0.90;0.50;;;;;;;;;;5050397;28;20112;-76
2023/08/11 04:58:14;;;;;;;0.40;0.40;;;;;;;;;;5050098;28;20112;-76
2023/08/11 05:00:41;;;;;;;0.50;0.50;;;;;;;;;;5050617;28;20080;-76
2023/08/11 05:03:08;;;;;;;0.73;0.73;;;;;;;;;;5052217;28;20045;-76
2023/08/11 05:05:34;;;;;;;0.50;0.50;;;;;;;;;;5054042;28;20434;-76
2023/08/11 05:08:01;;;;;;;0.43;0.30;;;;;;;;;;5053993;28;20443;-76
2023/08/11 05:10:27;;;;;;;0.68;0.57;;;;;;;;;;5053983;28;20359;-76
2023/08/11 05:12:54;;;;;;;1.10;0.55;;;;;;;;;;5054736;28;20087;-76
2023/08/11 05:15:20;;;;;;;0.60;0.60;;;;;;;;;;5053554;28;20033;-76
2023/08/11 05:17:47;;;;;;;0.80;0.65;;;;;;;;;;5053431;28;20037;-76
2023/08/11 05:20:14;;;;;;;0.40;0.40;;;;;;;;;;5053553;28;20055;-76
2023/08/11 05:22:41;;;;;;;0.60;0.43;;;;;;;;;;5053402;28;20041;-76
2023/08/11 05:25:09;;;;;;;0.85;0.52;;;;;;;;;;5053504;28;20050;-76
2023/08/11 05:27:35;;;;;;;0.60;0.60;;;;;;;;;;5053281;28;20041;-76
2023/08/11 05:30:02;;;;;;;0.50;0.50;;;;;;;;;;5055139;28;20053;-76
2023/08/11 05:32:29;;;;;;;0.60;0.50;;;;;;;;;;5053533;28;20235;-76
2023/08/11 05:34:56;;;;;;;0.98;0.60;;;;;;;;;;5053317;28;20442;-76
2023/08/11 05:37:24;;;;;;;0.73;0.73;;;;;;;;;;5053483;28;20037;-76
2023/08/11 05:39:54;;;;;;;0.43;0.43;;;23.10;70.50;;;;;;5053287;28;20395;-76
2023/08/11 05:42:21;;;;;;;1.15;0.60;;;;;;;;;;5037086;28;20108;-76
2023/08/11 05:44:47;;;;;;;0.50;0.50;;;;;;;;;;5052954;28;20128;-76
2023/08/11 05:47:14;;;;;;;0.60;0.60;;;;;;;;;;5052868;28;20048;-76
2023/08/11 05:49:40;;;;;;;0.95;0.60;;;;;;;;;;5053922;28;20060;-76
2023/08/11 05:52:07;;;;;;;1.02;0.57;;;;;;;;;;5054185;28;20041;-76
2023/08/11 05:54:33;;;;;;;0.45;0.45;;;;;;;;;;5053994;28;20083;-76
2023/08/11 05:57:00;;;;;;;0.63;0.60;;;;;;;;;;5054710;28;20412;-76
2023/08/11 05:59:27;;;;;;;1.05;0.50;;;;;;;;;;5054142;28;20064;-76
2023/08/11 06:01:53;;;;;;;0.55;0.55;;;;;;;;;;5053749;28;20476;-76
2023/08/11 06:04:20;;;;;;;0.50;0.50;;;;;;;;;;5053821;28;20052;-76
2023/08/11 06:06:46;;;;;;;0.60;0.60;;;;;;;;;;5053964;28;20036;-76
2023/08/11 06:09:13;;;;;;;0.63;0.60;;;;;;;;;;5053743;28;20052;-76
2023/08/11 06:11:40;;;;;;;0.90;0.70;;;;;;;;;;5053550;28;20045;-77
2023/08/11 06:14:06;;;;;;;0.60;0.50;;;;;;;;;;5052795;28;20033;-76
2023/08/11 06:16:33;;;;;;;1.17;0.90;;;;;;;;;;5053505;28;20040;-76
2023/08/11 06:18:59;;;;;;;0.57;0.57;;;;;;;;;;5053307;28;20487;-76
2023/08/11 06:21:26;;;;;;;0.80;0.70;;;;;;;;;;5053661;28;20060;-76
2023/08/11 06:23:53;;;;;;;0.63;0.60;;;;;;;;;;5053387;28;20116;-76
2023/08/11 06:26:20;;;;;;;0.50;0.45;;;;;;;;;;5054202;28;20041;-76
2023/08/11 06:28:47;;;;;;;0.60;0.60;;;;;;;;;;5053220;28;20128;-76
2023/08/11 06:31:13;;;;;;;0.68;0.68;;;;;;;;;;5053521;28;20053;-76
2023/08/11 06:33:39;;;;;;;0.70;0.70;;;;;;;;;;5053461;28;20033;-76
2023/08/11 06:36:06;;;;;;;0.60;0.60;;;;;;;;;;5053401;28;20107;-77
2023/08/11 06:38:32;;;;;;;1.35;0.57;;;;;;;;;;5053103;28;20144;-76
2023/08/11 06:40:59;;;;;;;0.60;0.60;;;;;;;;;;5053286;28;20128;-75
2023/08/11 06:43:26;;;;;;;0.63;0.63;;;;;;;;;;5053373;28;20036;-76
2023/08/11 06:45:52;;;;;;;0.73;0.73;;;;;;;;;;5052044;28;20049;-76
2023/08/11 06:48:18;;;;;;;0.73;0.70;;;;;;;;;;5051953;28;20156;-77
2023/08/11 06:50:45;;;;;;;0.60;0.52;;;;;;;;;;5051913;28;20447;-76
2023/08/11 06:53:11;;;;;;;1.13;0.80;;;;;;;;;;5051544;28;20506;-76
2023/08/11 06:55:38;;;;;;;0.70;0.70;;;;;;;;;;5052245;28;20062;-76
2023/08/11 06:58:04;;;;;;;0.70;0.70;;;;;;;;;;5052950;28;20041;-76
2023/08/11 07:00:31;;;;;;;0.80;0.70;;;;;;;;;;5052584;28;20048;-76
2023/08/11 07:02:58;;;;;;;0.50;0.50;;;;;;;;;;5052379;28;20039;-76
2023/08/11 07:05:24;;;;;;;0.70;0.70;;;;;;;;;;5052812;28;20549;-76
2023/08/11 07:07:51;;;;;;;0.90;0.60;;;;;;;;;;5052512;28;20039;-76
2023/08/11 07:10:18;;;;;;;0.73;0.73;;;;;;;;;;5052116;28;20041;-75
2023/08/11 07:12:44;;;;;;;0.80;0.73;;;;;;;;;;5052197;28;20534;-76
2023/08/11 07:15:11;;;;;;;0.80;0.60;;;;;;;;;;5052586;28;20045;-76
2023/08/11 07:17:37;;;;;;;1.92;0.68;;;;;;;;;;5052305;28;20487;-76
2023/08/11 07:20:04;;;;;;;5.30;5.00;;;;;;;;;;5052303;28;20041;-76
2023/08/11 07:22:30;;;;;;;1.10;1.00;;;;;;;;;;5052971;28;20030;-76
2023/08/11 07:24:57;;;;;;;1.00;0.60;;;;;;;;;;5052188;28;20037;-76
2023/08/11 07:27:23;;;;;;;0.90;0.90;;;;;;;;;;5052074;28;20048;-76
2023/08/11 07:29:50;;;;;;;0.82;0.75;;;;;;;;;;5052228;28;20395;-77
2023/08/11 07:32:16;;;;;;;0.85;0.85;;;;;;;;;;5051986;28;20613;-76
2023/08/11 07:34:43;;;;;;;1.02;0.80;;;;;;;;;;5051940;28;20044;-72
2023/08/11 07:37:09;;;;;;;0.90;0.90;;;;;;;;;;5051993;28;20033;-72
2023/08/11 07:39:36;;;;;;;0.70;0.70;;;;;;;;;;5051868;28;20065;-72
2023/08/11 07:42:05;;;;;;;1.98;0.70;;;;;;;;;;5052235;28;20033;-72
2023/08/11 07:44:33;;;;;;;0.50;0.50;;;24.30;68.40;;;;;;5052191;28;20136;-72
2023/08/11 07:47:02;;;;;;;0.73;0.65;;;;;;;;;;5051923;28;20052;-72
2023/08/11 07:49:29;;;;;;;1.00;0.77;;;;;;;;;;5052070;28;20045;-72
2023/08/11 07:51:57;;;;;;;0.90;0.80;;;;;;;;;;5052381;28;20610;-72
2023/08/11 07:54:24;;;;;;;0.70;0.65;;;;;;;;;;5052099;28;20060;-72
2023/08/11 07:56:50;;;;;;;1.00;0.90;;;;;;;;;;5052071;28;20033;-72
2023/08/11 07:59:16;;;;;;;1.63;1.00;;;;;;;;;;5051996;28;20095;-72
2023/08/11 08:01:43;;;;;;;1.10;0.85;;;;;;;;;;5051906;28;20071;-72
2023/08/11 08:04:10;;;;;;;0.80;0.70;;;;;;;;;;5052121;28;20506;-72
2023/08/11 08:06:43;;;;;;;0.70;0.70;;;;;;;;;;5051905;28;20107;-72
2023/08/11 08:09:11;;;;;;;1.35;1.02;;;24.00;67.90;;;;;;5051887;28;20089;-72
2023/08/11 08:11:45;;;;;;;1.85;1.10;;;24.00;64.60;;;;;;5051326;28;20045;-72
2023/08/11 08:14:28;;;;;;;0.77;0.77;;;;;;;;;;5051369;28;20088;-72
2023/08/11 08:16:56;;;;;;;0.93;0.90;;;;;;;;;;5051471;28;20483;-72
2023/08/11 08:19:22;;;;;;;0.88;0.80;;;;;;;;;;5052193;28;20037;-72
2023/08/11 08:21:49;;;;;;;0.98;0.77;;;;;;;;;;5051706;28;20472;-71
2023/08/11 08:24:15;;;;;;;0.70;0.65;;;;;;;;;;5051811;28;20037;-72
2023/08/11 08:26:43;;;;;;;1.52;0.98;;;;;;;;;;5051336;28;20037;-72
2023/08/11 08:29:09;;;;;;;1.70;1.10;;;;;;;;;;5051253;28;20507;-72
2023/08/11 08:31:36;;;;;;;0.93;0.88;;;;;;;;;;5051397;28;20037;-74
2023/08/11 08:34:02;;;;;;;1.48;0.90;;;;;;;;;;5051356;28;20500;-72
2023/08/11 08:36:29;;;;;;;1.20;1.20;;;;;;;;;;5051529;28;20365;-72
2023/08/11 08:38:55;;;;;;;1.00;0.95;;;;;;;;;;5054986;28;20490;-72
2023/08/11 08:41:28;;;;;;;1.25;1.15;;;24.00;72.50;;;;;;5055468;28;20094;-72
2023/08/11 08:43:59;;;;;;;0.82;0.77;;;23.90;72.20;;;;;;5055596;28;20029;-72
2023/08/11 08:46:29;;;;;;;0.80;0.65;;;24.00;72.40;;;;;;5055380;28;20106;-72
2023/08/11 08:48:55;;;;;;;1.20;1.10;;;;;;;;;;5055803;28;20091;-73
2023/08/11 08:51:22;;;;;;;1.40;1.13;;;;;;;;;;5055040;28;20858;-73
2023/08/11 08:53:48;;;;;;;1.02;0.93;;;;;;;;;;5055361;28;20064;-73
2023/08/11 08:56:15;;;;;;;3.00;1.10;;;24.00;70.00;;;;;;5054968;28;20474;-72
2023/08/11 08:58:43;;;;;;;1.33;1.20;;;;;;;;;;5054844;28;20214;-73
2023/08/11 09:01:10;;;;;;;1.67;1.27;;;24.00;70.40;;;;;;5054914;28;20061;-73
2023/08/11 09:03:37;;;;;;;2.25;1.00;;;;;;;;;;5054908;28;20040;-73
2023/08/11 09:06:05;;;;;;;1.40;1.10;;;;;;;;;;5054812;28;20472;-73
2023/08/11 09:08:32;;;;;;;1.30;0.90;;;24.00;71.70;;;;;;5054567;28;20051;-73
2023/08/11 09:10:58;;;;;;;1.88;1.30;;;;;;;;;;5054726;28;20119;-73
2023/08/11 09:13:26;;;;;;;2.88;1.60;;;24.10;73.00;;;;;;5054634;28;20116;-73
2023/08/11 09:15:53;;;;;;;1.75;1.13;;;;;;;;;;5054624;28;20028;-73
2023/08/11 09:18:19;;;;;;;1.33;0.98;;;;;;;;;;5055091;28;20072;-73
2023/08/11 09:20:47;;;;;;;1.77;1.48;;;24.30;72.80;;;;;;5054488;28;20479;-74
2023/08/11 09:23:13;;;;;;;1.23;0.95;;;;;;;;;;5054618;28;20033;-73
2023/08/11 09:25:40;;;;;;;1.50;0.90;;;;;;;;;;5054754;28;20040;-73
2023/08/11 09:28:06;;;;;;;1.02;1.00;;;;;;;;;;5054526;28;20116;-73
2023/08/11 09:30:33;;;;;;;1.80;1.20;;;;;;;;;;5054440;28;20126;-73
2023/08/11 09:33:03;;;;;;;1.95;1.25;;;24.40;67.50;;;;;;5054276;28;20041;-73
2023/08/11 09:35:29;;;;;;;;;;;24.40;72.40;;;;;;5054565;28;20029;-73
2023/08/11 09:37:56;;;;;;;0.85;0.85;;;;;;;;;;5054396;28;20383;-73
2023/08/11 09:40:23;;;;;;;1.08;0.98;;;;;;;;;;5054619;28;20087;-73
2023/08/11 09:42:50;;;;;;;1.20;1.10;;;;;;;;;;5054430;28;20415;-73
2023/08/11 09:45:18;;;;;;;1.17;1.08;;;24.70;72.90;;;;;;5054650;28;20032;-73
2023/08/11 09:47:45;;;;;;;1.52;0.93;;;;;;;;;;5054255;28;20457;-73
2023/08/11 09:50:12;;;;;;;1.30;1.20;;;;;;;;;;5053828;28;20048;-73
2023/08/11 09:52:39;;;;;;;1.27;1.00;;;24.80;72.30;;;;;;5054171;28;20037;-73
2023/08/11 09:55:09;;;;;;;1.50;1.13;;;24.90;72.30;;;;;;5053953;28;20040;-73
2023/08/11 09:57:37;;;;;;;1.10;1.03;;;24.90;72.20;;;;;;5053877;28;20484;-73
2023/08/11 10:00:05;;;;;;;1.23;1.13;;;25.00;72.30;;;;;;5053791;28;20507;-73
2023/08/11 10:02:35;;;;;;;1.20;1.10;;;25.00;72.40;;;;;;5053853;28;20078;-73
2023/08/11 10:05:07;;;;;;;1.03;0.90;;;25.00;66.80;;;;;;5053722;28;20041;-73
2023/08/11 10:07:39;;;;;;;1.05;0.95;;;25.20;72.70;;;;;;5053998;28;20056;-73
2023/08/11 10:10:12;;;;;;;1.20;1.10;;;25.20;67.00;;;;;;5053583;28;20125;-73
2023/08/11 10:12:40;;;;;;;1.30;1.20;;;;;;;;;;5053266;28;20053;-73
2023/08/11 10:15:09;;;;;;;1.45;1.10;;;25.30;72.70;;;;;;5054341;28;20060;-73
2023/08/11 10:17:36;;;;;;;1.00;0.90;;;25.30;72.60;;;;;;5053814;28;20053;-73
2023/08/11 10:20:05;;;;;;;1.25;1.05;;;;;;;;;;5053323;28;20033;-73
2023/08/11 10:22:34;;;;;;;1.23;0.90;;;25.40;67.20;;;;;;5053378;28;20483;-73
2023/08/11 10:25:04;;;;;;;1.60;1.00;;;25.40;72.90;;;;;;5053615;28;20025;-73
2023/08/11 10:27:30;;;;;;;;;;;25.40;73.00;;;;;;5053875;28;20028;-73
2023/08/11 10:29:57;;;;;;;1.20;1.10;;;25.60;71.10;;;;;;5053042;28;19986;-73
2023/08/11 10:32:23;;;;;;;1.30;1.20;;;;;;;;;;5053335;28;20469;-73
2023/08/11 10:34:50;;;;;;;1.30;1.20;;;;;;;;;;5053338;28;20075;-73
2023/08/11 10:37:16;;;;;;;1.30;1.20;;;;;;;;;;5053381;28;20108;-73
2023/08/11 10:39:43;;;;;;;2.65;1.10;;;;;;;;;;5053118;28;20483;-73
2023/08/11 10:42:12;;;;;;;1.98;1.50;;;25.90;72.80;;;;;;5053513;28;20483;-73
2023/08/11 10:44:43;;;;;;;1.35;1.25;;;26.00;73.00;;;;;;5052958;28;20052;-73
2023/08/11 10:47:11;;;;;;;1.38;1.20;;;26.10;72.80;;;;;;5053195;28;20033;-73
2023/08/11 10:49:41;;;;;;;1.13;1.05;;;26.10;72.70;;;;;;5052801;28;20167;-73
2023/08/11 10:52:08;;;;;;;1.58;1.00;;;;;;;;;;5053171;28;20033;-73
2023/08/11 10:54:35;;;;;;;1.52;1.33;;;;;;;;;;5052924;28;20044;-73
2023/08/11 10:57:01;;;;;;;1.25;1.15;;;;;;;;;;5053084;28;20037;-73
2023/08/11 10:59:33;;;;;;;1.17;1.02;;;26.40;67.30;;;;;;5052654;28;20041;-73
2023/08/11 11:01:59;;;;;;;1.05;1.02;;;;;;;;;;5052212;28;20064;-73
2023/08/11 11:04:30;;;;;;;1.35;1.25;;;26.40;67.10;;;;;;5052574;28;20353;-73
2023/08/11 11:06:58;;;;;;;1.30;1.15;;;26.70;73.10;;;;;;5052477;28;20487;-73
2023/08/11 11:09:25;;;;;;;1.10;1.00;;;;;;;;;;5052582;28;20037;-73
2023/08/11 11:11:51;;;;;;;1.30;1.20;;;;;;;;;;5053043;28;20045;-73
2023/08/11 11:14:18;;;;;;;1.20;1.10;;;;;;;;;;5052447;28;20032;-73
2023/08/11 11:16:45;;;;;;;1.30;1.05;;;;;;;;;;5052776;28;20443;-73
2023/08/11 11:19:11;;;;;;;1.30;1.20;;;;;;;;;;5052295;28;20068;-72
2023/08/11 11:21:41;;;;;;;1.05;0.95;;;27.00;73.10;;;;;;5052386;28;20479;-73
2023/08/11 11:24:08;;;;;;;1.27;1.15;;;27.10;73.20;;;;;;5052306;28;20087;-73
2023/08/11 11:26:35;;;;;;;2.13;1.30;;;;;;;;;;5052288;28;20093;-73
2023/08/11 11:29:04;;;;;;;1.25;1.10;;;27.30;72.70;;;;;;5052465;28;20148;-73
2023/08/11 11:31:33;;;;;;;1.80;1.20;;;27.30;72.80;;;;;;5052115;28;20483;-73
2023/08/11 11:34:00;;;;;;;1.23;1.10;;;;;;;;;;5052509;28;20090;-72
2023/08/11 11:36:27;;;;;;;1.48;1.02;;;;;;;;;;5052333;28;20052;-72
2023/08/11 11:38:54;;;;;;;1.45;1.20;;;;;;;;;;5052799;28;20045;-72
2023/08/11 11:41:20;;;;;;;1.42;1.25;;;27.30;67.80;;;;;;5052303;28;20041;-72
2023/08/11 11:43:48;;;;;;;1.98;1.10;;;27.30;71.80;;;;;;5051979;28;20040;-73
2023/08/11 11:46:16;;;;;;;1.25;1.15;;;27.30;71.70;;;;;;5052179;28;20096;-72
2023/08/11 11:48:46;;;;;;;1.65;1.40;;;27.30;66.20;;;;;;5051833;28;20061;-72
2023/08/11 11:51:15;;;;;;;2.85;1.20;;;27.30;71.80;;;;;;5052143;28;20056;-72
2023/08/11 11:53:42;;;;;;;1.55;1.45;;;27.40;71.60;;;;;;5052132;28;20045;-72
2023/08/11 11:56:09;;;;;;;1.95;1.05;;;;;;;;;;5051920;28;20412;-73
2023/08/11 11:58:38;;;;;;;1.63;1.15;;;27.50;66.40;;;;;;5051999;28;20396;-73
2023/08/11 12:01:22;;;;;;;1.35;1.20;;;27.60;66.30;;;;;;5051590;28;20041;-73
2023/08/11 12:03:50;;;;;;;1.27;1.17;;;27.70;71.90;;;;;;5051726;28;20044;-72
2023/08/11 12:06:18;;;;;;;1.58;1.20;;;27.80;71.70;;;;;;5051933;28;20152;-72
2023/08/11 12:08:46;;;;;;;1.40;1.30;;;27.90;70.50;;;;;;5052086;28;20049;-72
2023/08/11 12:11:15;;;;;;;1.42;1.33;;;27.80;71.90;;;;;;5051498;28;20033;-73
2023/08/11 12:13:43;;;;;;;1.23;1.20;;;27.90;71.80;;;;;;5055205;28;20040;-72
2023/08/11 12:16:15;;;;;;;1.20;1.10;;;28.10;71.70;;;;;;5056013;28;20416;-72
2023/08/11 12:18:42;;;;;;;1.10;1.00;;;;;;;;;;5055881;28;20037;-72
2023/08/11 12:21:09;;;;;;;1.60;1.23;;;;;;;;;;5055990;28;20037;-72
2023/08/11 12:23:35;;;;;;;2.13;1.30;;;;;;;;;;5055682;28;20487;-72
2023/08/11 12:26:02;;;;;;;2.58;1.20;;;;;;;;;;5055745;28;20029;-73
2023/08/11 12:28:28;;;;;;;1.27;1.17;;;;;;;;;;5055704;28;20112;-72
2023/08/11 12:30:55;;;;;;;2.08;1.52;;;;;;;;;;5055737;28;20037;-72
2023/08/11 12:33:22;;;;;;;1.35;1.25;;;;;;;;;;5055471;28;20060;-73
2023/08/11 12:35:48;;;;;;;4.70;1.33;;;;;;;;;;5056220;28;20041;-72
2023/08/11 12:38:20;;;;;;;1.30;1.20;;;28.20;65.60;;;;;;5055625;28;20083;-72
2023/08/11 12:40:47;;;;;;;1.20;1.10;;;;;;;;;;5055474;28;20041;-72
2023/08/11 12:43:14;;;;;;;1.92;1.60;;;;;;;;;;5055311;28;20037;-72
2023/08/11 12:45:41;;;;;;;1.35;1.25;;;28.30;71.60;;;;;;5055557;28;20041;-72
2023/08/11 12:48:09;;;;;;;2.10;1.25;;;28.20;69.30;;;;;;5055258;28;20025;-72
2023/08/11 12:50:36;;;;;;;1.88;1.20;;;;;;;;;;5055031;28;20040;-73
2023/08/11 12:53:05;;;;;;;1.48;1.00;;;28.20;69.20;;;;;;5055390;28;20044;-72
2023/08/11 12:55:33;;;;;;;1.73;1.17;;;;;;;;;;5055381;28;20271;-73
2023/08/11 12:58:03;;;;;;;2.28;1.13;;;28.20;71.90;;;;;;5055363;28;20045;-72
2023/08/11 13:00:30;;;;;;;1.42;1.10;;;;;;;;;;5055374;28;20033;-72
2023/08/11 13:02:57;;;;;;;1.00;0.90;;;;;;;;;;5055058;28;20029;-72
2023/08/11 13:05:24;;;;;;;1.48;1.05;;;;;;;;;;5055436;28;20033;-72
2023/08/11 13:07:50;;;;;;;1.58;1.05;;;;;;;;;;5054890;28;20068;-72
2023/08/11 13:10:20;;;;;;;1.88;1.33;;;;;;;;;;5054614;28;20053;-72
2023/08/11 13:12:47;;;;;;;1.15;1.13;;;;;;;;;;5054653;28;20049;-73
2023/08/11 13:15:14;;;;;;;0.90;0.90;;;;;;;;;;5055031;28;20045;-73
2023/08/11 13:17:40;;;;;;;1.70;1.10;;;;;;;;;;5055026;28;20044;-72
2023/08/11 13:20:09;;;;;;;2.63;1.00;;;;;;;;;;5054579;28;20090;-72
2023/08/11 13:22:36;;;;;;;1.65;0.90;;;28.40;68.80;;;;;;5054728;28;20413;-73
2023/08/11 13:25:03;;;;;;;1.40;1.15;;;;;;;;;;5054458;28;20037;-73
2023/08/11 13:27:29;;;;;;;1.85;1.13;;;;;;;;;;5054772;28;20037;-73
2023/08/11 13:29:56;;;;;;;1.15;0.70;;;28.20;69.50;;;;;;5054667;28;20053;-73
2023/08/11 13:32:22;;;;;;;1.45;1.05;;;;;;;;;;5054420;28;20029;-73
2023/08/11 13:34:49;;;;;;;0.95;0.90;;;;;;;;;;5055121;28;20397;-73
2023/08/11 13:37:15;;;;;;;1.33;0.90;;;;;;;;;;5054663;28;20033;-73
2023/08/11 13:39:42;;;;;;;1.10;1.00;;;;;;;;;;5054577;28;20037;-73
2023/08/11 13:42:10;;;;;;;1.27;1.00;;;;;;;;;;5054511;28;20403;-73
2023/08/11 13:44:37;;;;;;;1.98;1.35;;;;;;;;;;5054501;28;20041;-73
2023/08/11 13:47:03;;;;;;;2.03;0.70;;;;;;;;;;5054204;28;20500;-73
2023/08/11 13:49:29;;;;;;;1.45;0.80;;;;;;;;;;5054092;28;20045;-73
2023/08/11 13:51:56;;;;;;;1.52;0.90;;;;;;;;;;5054313;28;20044;-73
2023/08/11 13:54:22;;;;;;;0.73;0.68;;;;;;;;;;5054250;28;20125;-73
2023/08/11 13:56:49;;;;;;;0.73;0.73;;;;;;;;;;5054284;28;20061;-73
2023/08/11 13:59:15;;;;;;;1.10;0.85;;;;;;;;;;5054324;28;20041;-72
2023/08/11 14:01:42;;;;;;;1.08;0.80;;;;;;;;;;5054525;28;20038;-72
2023/08/11 14:04:08;;;;;;;1.27;0.80;;;;;;;;;;5054012;28;20033;-72
2023/08/11 14:06:35;;;;;;;1.30;0.80;;;;;;;;;;5053777;28;20037;-72
2023/08/11 14:09:01;;;;;;;2.20;0.90;;;;;;;;;;5053860;28;20049;-72
2023/08/11 14:11:28;;;;;;;1.05;0.82;;;;;;;;;;5053648;28;20045;-72
2023/08/11 14:13:54;;;;;;;2.05;1.10;;;;;;;;;;5053953;28;20049;-72
2023/08/11 14:16:21;;;;;;;1.52;0.90;;;;;;;;;;5053990;28;20365;-72